Time;durP1;ratioP1;P1;durP2;ratioP2;P2;SDS_P1;SDS_P2;PMS_P1;PMS_P2;Temp;Humidity;BMP_temperature;BMP_pressure;BME280_temperature;BME280_humidity;BME280_pressure;Samples;Min_cycle;Max_cycle;Signal;HPM_P1;HPM_P2
2023/04/11 00:02:24;;;;;;;;;1.75;1.00;;;;;10.48;68.67;101235.59;6277753;22;45356;-72
2023/04/11 00:04:53;;;;;;;;;2.00;2.00;;;;;10.72;68.44;101285.69;6277540;22;45099;-72
2023/04/11 00:07:19;;;;;;;;;3.25;1.25;;;;;10.51;68.40;101259.47;6249092;22;46138;-72
2023/04/11 00:09:45;;;;;;;;;1.75;1.00;;;;;10.49;68.62;101258.53;6277733;22;45273;-73
2023/04/11 00:12:10;;;;;;;;;2.00;2.00;;;;;10.57;69.28;101279.94;6248773;22;45209;-72
2023/04/11 00:14:37;;;;;;;;;6.00;2.00;;;;;10.44;68.48;101265.41;6277996;22;45180;-72
2023/04/11 00:17:02;;;;;;;;;2.00;1.00;;;;;10.55;68.66;101289.53;6277777;22;46335;-72
2023/04/11 00:19:29;;;;;;;;;1.25;0.75;;;;;10.51;69.23;101294.72;6277894;22;45218;-72
2023/04/11 00:21:59;;;;;;;;;1.75;1.00;;;;;10.44;67.83;101286.53;6277365;22;45150;-72
2023/04/11 00:24:25;;;;;;;;;4.50;1.00;;;;;10.30;67.58;101268.47;6277369;22;45296;-72
2023/04/11 00:26:50;;;;;;;;;1.00;1.00;;;;;10.33;68.56;101270.34;6277471;22;45354;-72
2023/04/11 00:29:16;;;;;;;;;3.50;1.75;;;;;10.30;68.65;101260.56;6249350;22;45276;-72
2023/04/11 00:31:41;;;;;;;;;3.25;1.00;;;;;10.23;68.80;101252.38;6249928;22;45291;-72
2023/04/11 00:34:06;;;;;;;;;1.00;1.00;;;;;10.30;67.12;101286.97;6249600;22;47041;-72
2023/04/11 00:36:32;;;;;;;;;3.75;1.00;;;;;10.34;67.67;101302.97;6277423;22;45566;-72
2023/04/11 00:38:57;;;;;;;;;2.00;1.00;;;;;10.18;67.67;101283.91;6276262;22;45220;-72
2023/04/11 00:41:23;;;;;;;;;2.00;1.00;;;;;10.19;67.89;101296.25;6277677;22;46763;-72
2023/04/11 00:43:49;;;;;;;;;1.00;1.00;;;;;10.03;67.24;101259.63;6277292;22;45248;-72
2023/04/11 00:46:15;;;;;;;;;1.00;1.00;;;;;10.06;68.24;101279.13;6277642;22;45267;-72
2023/04/11 00:48:41;;;;;;;;;0.25;0.00;;;;;9.98;67.06;101264.75;6277626;22;45165;-71
2023/04/11 00:51:07;;;;;;;;;1.25;0.25;;;;;9.93;67.91;101273.34;6277887;22;45221;-72
2023/04/11 00:53:35;;;;;;;;;2.00;0.75;;;;;10.07;67.72;101301.13;6249311;22;45571;-71
2023/04/11 00:56:00;;;;;;;;;2.00;2.00;;;;;9.89;67.25;101275.00;6277533;22;45532;-72
2023/04/11 00:58:26;;;;;;;;;2.00;0.50;;;;;10.05;67.87;101295.81;6249369;22;45304;-72
2023/04/11 01:00:52;;;;;;;;;0.00;0.00;;;;;9.93;67.56;101281.28;6277903;22;45311;-72
2023/04/11 01:03:17;;;;;;;;;3.25;0.00;;;;;9.94;67.60;101291.91;6277391;22;45393;-72
2023/04/11 01:05:44;;;;;;;;;4.75;3.00;;;;;9.84;67.55;101280.13;6277587;22;46278;-72
2023/04/11 01:08:10;;;;;;;;;3.00;1.00;;;;;9.90;67.46;101283.81;6248470;22;45295;-72
2023/04/11 01:10:37;;;;;;;;;2.75;1.50;;;;;9.87;67.92;101281.97;6250052;22;45197;-72
2023/04/11 01:13:02;;;;;;;;;4.25;1.25;;;;;9.95;67.55;101311.28;6277169;22;45484;-71
2023/04/11 01:15:28;;;;;;;;;1.75;1.00;;;;;9.90;67.18;101292.63;6276862;22;45300;-72
2023/04/11 01:17:54;;;;;;;;;1.25;1.00;;;;;9.70;67.15;101285.75;6249198;22;45221;-72
2023/04/11 01:20:20;;;;;;;;;4.50;1.25;;;;;9.83;67.52;101317.00;6249948;22;45284;-72
2023/04/11 01:22:48;;;;;;;;;0.00;0.00;;;;;9.86;67.61;101325.06;6276331;22;45294;-72
2023/04/11 01:25:14;;;;;;;;;2.00;1.00;;;;;9.76;67.41;101315.91;6248686;22;46340;-72
2023/04/11 01:27:41;;;;;;;;;3.00;2.00;;;;;9.70;67.53;101297.22;6248909;22;45204;-72
2023/04/11 01:30:07;;;;;;;;;1.00;1.00;;;;;9.71;67.13;101290.19;6250076;22;45209;-72
2023/04/11 01:32:33;;;;;;;;;1.00;1.00;;;;;9.79;66.90;101301.91;6276973;22;45204;-72
2023/04/11 01:35:00;;;;;;;;;1.00;1.00;;;;;9.73;66.86;101307.88;6277450;22;45313;-72
2023/04/11 01:37:25;;;;;;;;;2.25;1.00;;;;;9.70;67.94;101313.06;6276307;22;45436;-73
2023/04/11 01:39:50;;;;;;;;;1.50;0.00;;;;;9.76;66.91;101328.22;6277700;22;45192;-72
2023/04/11 01:42:17;;;;;;;;;1.00;1.00;;;;;9.69;67.21;101315.63;6249852;22;46873;-72
2023/04/11 01:44:42;;;;;;;;;1.50;1.00;;;;;9.65;67.89;101322.53;6277448;22;45346;-72
2023/04/11 01:47:08;;;;;;;;;1.00;1.00;;;;;9.52;66.91;101301.81;6277326;22;45171;-73
2023/04/11 01:49:34;;;;;;;;;5.00;0.75;;;;;9.56;67.18;101309.03;6277431;22;45711;-72
2023/04/11 01:51:59;;;;;;;;;2.00;0.00;;;;;9.60;67.96;101329.38;6276523;22;45170;-73
2023/04/11 01:54:25;;;;;;;;;3.75;0.50;;;;;9.50;68.19;101314.06;6248913;22;47094;-72
2023/04/11 01:56:51;;;;;;;;;2.50;1.50;;;;;9.56;67.76;101332.78;6277307;22;45165;-72
2023/04/11 01:59:16;;;;;;;;;2.50;1.00;;;;;9.54;68.60;101326.53;6276990;22;45346;-72
2023/04/11 02:01:43;;;;;;;;;5.00;4.50;;;;;9.34;67.04;101297.66;6248194;22;45125;-72
2023/04/11 02:04:08;;;;;;;;;2.75;1.00;;;;;9.52;67.23;101341.41;6276522;22;45609;-72
2023/04/11 02:06:34;;;;;;;;;1.75;1.00;;;;;9.60;68.09;101358.41;6247929;22;45273;-72
2023/04/11 02:08:59;;;;;;;;;4.25;1.00;;;;;9.36;68.64;101324.13;6276991;22;45284;-72
2023/04/11 02:11:25;;;;;;;;;4.00;1.50;;;;;9.48;67.79;101344.78;6277215;22;45489;-72
2023/04/11 02:13:51;;;;;;;;;0.00;0.00;;;;;9.44;67.77;101334.94;6276816;22;46414;-72
2023/04/11 02:16:16;;;;;;;;;5.50;2.00;;;;;9.37;68.68;101326.78;6277051;22;45284;-72
2023/04/11 02:18:43;;;;;;;;;6.50;1.50;;;;;9.55;68.99;101352.06;6248817;22;45287;-72
2023/04/11 02:21:09;;;;;;;;;0.00;0.00;;;;;9.46;67.87;101368.44;6249472;22;46450;-72
2023/04/11 02:23:35;;;;;;;;;1.75;1.00;;;;;9.50;68.32;101375.66;6248072;22;47088;-72
2023/04/11 02:26:01;;;;;;;;;1.25;1.25;;;;;9.50;67.24;101351.03;6277079;22;45177;-72
2023/04/11 02:28:26;;;;;;;;;2.25;1.25;;;;;9.34;69.23;101329.31;6249096;22;45402;-72
2023/04/11 02:30:52;;;;;;;;;2.00;1.00;;;;;9.44;68.10;101353.41;6248811;22;45828;-72
2023/04/11 02:33:18;;;;;;;;;3.00;1.25;;;;;9.25;67.36;101330.72;6248317;22;46493;-72
2023/04/11 02:35:44;;;;;;;;;1.25;1.00;;;;;9.49;67.85;101372.94;6249951;22;45294;-72
2023/04/11 02:38:10;;;;;;;;;0.00;0.00;;;;;9.49;68.39;101379.13;6277268;22;45355;-72
2023/04/11 02:40:35;;;;;;;;;4.75;3.00;;;;;9.40;68.23;101361.22;6250603;22;45798;-73
2023/04/11 02:43:00;;;;;;;;;1.00;1.00;;;;;9.36;68.28;101354.03;6278066;22;45227;-72
2023/04/11 02:45:26;;;;;;;;;2.00;0.00;;;;;9.33;68.16;101355.66;6278378;22;45221;-73
2023/04/11 02:47:51;;;;;;;;;4.25;1.25;;;;;9.38;68.37;101368.19;6249936;22;45234;-72
2023/04/11 02:50:16;;;;;;;;;2.00;1.00;;;;;9.32;68.29;101346.81;6249325;22;51376;-72
2023/04/11 02:52:43;;;;;;;;;2.50;2.00;;;;;9.19;68.06;101328.75;6249472;22;47323;-73
2023/04/11 02:55:09;;;;;;;;;2.50;2.00;;;;;9.39;68.27;101361.16;6278221;22;45162;-73
2023/04/11 02:57:34;;;;;;;;;2.25;0.00;;;;;9.37;68.88;101366.38;6248921;22;45226;-72
2023/04/11 03:00:00;;;;;;;;;2.25;1.00;;;;;9.19;67.71;101334.03;6250387;22;45447;-72
2023/04/11 03:02:25;;;;;;;;;1.00;1.00;;;;;9.41;69.82;101383.25;6277476;22;45436;-73
2023/04/11 03:04:50;;;;;;;;;4.00;3.00;;;;;9.32;68.22;101373.19;6278240;22;45167;-73
2023/04/11 03:07:16;;;;;;;;;2.00;2.00;;;;;9.35;68.72;101372.44;6277882;22;45395;-72
2023/04/11 03:09:41;;;;;;;;;3.50;1.00;;;;;9.22;69.18;101352.59;6278372;22;45199;-72
2023/04/11 03:12:06;;;;;;;;;3.00;2.00;;;;;9.34;69.53;101382.09;6277956;22;45291;-73
2023/04/11 03:14:32;;;;;;;;;1.25;1.25;;;;;9.39;68.90;101391.09;6277731;22;45245;-72
2023/04/11 03:16:57;;;;;;;;;4.00;1.00;;;;;9.38;68.78;101393.66;6277963;22;45160;-73
2023/04/11 03:19:22;;;;;;;;;3.75;0.50;;;;;9.09;69.39;101347.69;6250368;22;52200;-72
2023/04/11 03:21:48;;;;;;;;;2.00;0.00;;;;;9.29;69.78;101388.03;6277083;22;45263;-72
2023/04/11 03:24:13;;;;;;;;;2.25;1.00;;;;;9.15;68.19;101371.66;6278101;22;45391;-72
2023/04/11 03:26:38;;;;;;;;;2.25;1.00;;;;;9.23;68.81;101382.50;6250582;22;45346;-72
2023/04/11 03:29:04;;;;;;;;;4.00;1.00;;;;;9.10;68.88;101362.66;6277871;22;45193;-72
2023/04/11 03:31:29;;;;;;;;;2.75;0.25;;;;;9.30;68.84;101403.94;6277902;22;45306;-72
2023/04/11 03:33:55;;;;;;;;;2.00;1.00;;;;;9.18;70.71;101391.13;6277662;22;45230;-73
2023/04/11 03:36:21;;;;;;;;;3.75;1.00;;;;;9.17;68.04;101389.34;6278182;22;45422;-72
2023/04/11 03:38:47;;;;;;;;;1.25;1.00;;;;;9.21;69.11;101387.72;6275921;22;45323;-72
2023/04/11 03:41:12;;;;;;;;;2.50;1.00;;;;;9.19;68.63;101387.66;6277941;22;45271;-72
2023/04/11 03:43:38;;;;;;;;;0.00;0.00;;;;;9.27;68.37;101413.44;6277470;22;45315;-72
2023/04/11 03:46:03;;;;;;;;;3.00;1.00;;;;;9.26;69.23;101412.53;6278197;22;45197;-73
2023/04/11 03:48:29;;;;;;;;;4.50;0.25;;;;;9.25;69.64;101417.78;6277863;22;45240;-72
2023/04/11 03:50:55;;;;;;;;;3.25;1.50;;;;;9.09;69.84;101390.78;6277546;22;45279;-72
2023/04/11 03:53:21;;;;;;;;;1.00;1.00;;;;;9.10;69.68;101386.41;6249735;22;45198;-72
2023/04/11 03:55:47;;;;;;;;;2.50;2.00;;;;;9.21;69.96;101414.09;6250369;22;45118;-72
2023/04/11 03:58:13;;;;;;;;;0.75;0.75;;;;;9.04;70.13;101394.06;6277396;22;45184;-73
2023/04/11 04:00:39;;;;;;;;;1.50;0.25;;;;;9.21;69.58;101418.47;6277806;22;46461;-72
2023/04/11 04:03:05;;;;;;;;;2.75;2.00;;;;;9.11;69.88;101404.03;6277803;22;45279;-72
2023/04/11 04:05:31;;;;;;;;;1.00;1.00;;;;;9.13;69.79;101411.19;6278285;22;45325;-72
2023/04/11 04:07:56;;;;;;;;;1.75;1.50;;;;;9.01;69.79;101384.28;6249169;22;46067;-72
2023/04/11 04:10:22;;;;;;;;;3.00;2.00;;;;;9.17;69.35;101412.19;6249493;22;47545;-72
2023/04/11 04:12:47;;;;;;;;;4.00;1.75;;;;;9.22;69.31;101420.28;6277610;22;45592;-72
2023/04/11 04:15:13;;;;;;;;;5.00;1.00;;;;;9.18;69.71;101413.97;6276618;22;45280;-72
2023/04/11 04:17:41;;;;;;;;;5.00;2.00;;;;;9.14;69.23;101409.44;6249736;22;45975;-72
2023/04/11 04:20:09;;;;;;;;;5.00;3.25;;;;;9.13;69.24;101410.25;6277837;22;45209;-72
2023/04/11 04:22:36;;;;;;;;;2.00;2.00;;;;;9.09;69.44;101403.97;6277172;22;45303;-72
2023/04/11 04:25:01;;;;;;;;;4.00;2.00;;;;;9.06;69.86;101403.84;6278045;22;45312;-72
2023/04/11 04:27:26;;;;;;;;;4.00;2.00;;;;;9.06;70.70;101388.03;6249646;22;45852;-72
2023/04/11 04:29:52;;;;;;;;;0.75;0.75;;;;;8.98;69.79;101394.72;6277764;22;46387;-73
2023/04/11 04:32:21;;;;;;;;;2.00;2.00;;;;;9.13;70.12;101416.44;6249081;22;45395;-73
2023/04/11 04:34:48;;;;;;;;;1.75;1.00;;;;;9.09;70.06;101411.88;6250481;22;45133;-73
2023/04/11 04:37:20;;;;;;;;;2.75;1.50;;;;;9.05;70.71;101407.34;6277363;22;45327;-72
2023/04/11 04:39:53;;;;;;;;;1.50;1.00;;;;;9.06;70.24;101409.13;6277674;22;46195;-72
2023/04/11 04:42:23;;;;;;;;;3.00;1.00;;;;;9.00;69.52;101395.69;6277439;22;45180;-72
2023/04/11 04:44:50;;;;;;;;;2.75;1.25;;;;;8.95;71.43;101398.13;6277705;22;45267;-72
2023/04/11 04:47:16;;;;;;;;;2.50;2.00;;;;;9.03;69.46;101409.00;6277469;22;45201;-71
2023/04/11 04:49:45;;;;;;;;;3.00;1.75;;;;;8.87;70.75;101396.91;6277657;22;45330;-72
2023/04/11 04:52:14;;;;;;;;;2.75;1.00;;;;;9.03;69.90;101418.66;6248926;22;45339;-71
2023/04/11 04:54:40;;;;;;;;;1.75;1.75;;;;;9.06;69.84;101421.41;6277812;22;45284;-72
2023/04/11 04:57:06;;;;;;;;;5.00;2.00;;;;;9.05;70.54;101431.06;6276300;22;45353;-73
2023/04/11 04:59:32;;;;;;;;;2.00;2.00;;;;;9.05;70.15;101431.06;6277346;22;45322;-73
2023/04/11 05:01:57;;;;;;;;;1.00;1.00;;;;;8.94;69.39;101419.19;6249274;22;45206;-73
2023/04/11 05:04:23;;;;;;;;;4.25;3.00;;;;;8.99;69.84;101432.53;6250234;22;45332;-73
2023/04/11 05:06:48;;;;;;;;;2.50;1.25;;;;;8.98;70.56;101428.09;6277495;22;45111;-73
2023/04/11 05:09:15;;;;;;;;;2.75;1.25;;;;;9.03;69.77;101439.75;6249797;22;46216;-73
2023/04/11 05:11:40;;;;;;;;;2.25;1.00;;;;;8.98;69.93;101430.75;6278141;22;45158;-73
2023/04/11 05:14:06;;;;;;;;;3.00;2.00;;;;;8.84;71.12;101409.97;6278095;22;45122;-73
2023/04/11 05:16:31;;;;;;;;;5.00;2.00;;;;;9.03;70.24;101442.38;6278401;22;45174;-73
2023/04/11 05:18:56;;;;;;;;;4.00;0.25;;;;;8.99;69.99;101437.81;6277637;22;45296;-72
2023/04/11 05:21:22;;;;;;;;;4.25;1.50;;;;;8.87;71.36;101431.19;6278450;22;45232;-72
2023/04/11 05:23:47;;;;;;;;;3.00;2.00;;;;;9.04;70.58;101454.72;6277708;22;45672;-73
2023/04/11 05:26:13;;;;;;;;;1.75;1.00;;;;;8.96;70.72;101444.78;6250231;22;46347;-73
2023/04/11 05:28:38;;;;;;;;;2.25;1.00;;;;;9.00;69.78;101455.44;6276837;22;45298;-73
2023/04/11 05:31:04;;;;;;;;;1.50;0.75;;;;;8.97;70.55;101445.66;6276619;22;45389;-72
2023/04/11 05:33:30;;;;;;;;;7.50;2.00;;;;;8.96;71.30;101433.31;6277983;22;45293;-73
2023/04/11 05:35:55;;;;;;;;;3.00;1.00;;;;;9.07;70.24;101460.13;6277621;22;45240;-73
2023/04/11 05:38:21;;;;;;;;;3.25;1.00;;;;;9.06;69.85;101461.84;6276987;22;45436;-73
2023/04/11 05:40:46;;;;;;;;;3.75;1.50;;;;;9.02;71.02;101445.84;6277919;22;45217;-73
2023/04/11 05:43:13;;;;;;;;;4.75;2.00;;;;;8.91;70.86;101429.59;6249958;22;45295;-73
2023/04/11 05:45:46;;;;;;;;;0.00;0.00;;;;;8.87;70.17;101423.28;6277823;22;45344;-73
2023/04/11 05:48:11;;;;;;;;;5.00;2.00;;;;;8.94;70.28;101427.97;6277043;22;46191;-72
2023/04/11 05:50:37;;;;;;;;;2.25;1.75;;;;;9.04;70.49;101446.81;6277304;22;45289;-73
2023/04/11 05:53:03;;;;;;;;;4.25;1.25;;;;;9.07;71.22;101446.94;6249410;22;45266;-73
2023/04/11 05:55:28;;;;;;;;;6.00;2.00;;;;;8.92;71.58;101421.75;6278189;22;45264;-74
2023/04/11 05:57:54;;;;;;;;;3.75;2.00;;;;;9.03;70.70;101442.38;6277666;22;46269;-73
2023/04/11 06:00:19;;;;;;;;;6.25;1.50;;;;;8.99;70.79;101429.91;6278245;22;45163;-72
2023/04/11 06:02:46;;;;;;;;;5.00;3.00;;;;;9.15;70.02;101450.78;6277700;22;45161;-72
2023/04/11 06:05:12;;;;;;;;;4.00;1.75;;;;;9.13;71.09;101444.53;6250282;22;45465;-72
2023/04/11 06:07:38;;;;;;;;;2.00;1.50;;;;;9.11;71.26;101448.88;6276181;22;47550;-72
2023/04/11 06:10:07;;;;;;;;;2.00;2.00;;;;;9.10;71.18;101447.97;6279905;22;45284;-73
2023/04/11 06:12:33;;;;;;;;;3.25;1.00;;;;;9.18;71.21;101458.81;6280795;22;45240;-73
2023/04/11 06:14:58;;;;;;;;;6.25;1.75;;;;;8.95;70.11;101416.59;6252437;22;49100;-73
2023/04/11 06:17:24;;;;;;;;;1.25;1.25;;;;;9.28;69.76;101474.19;6280716;22;45178;-74
2023/04/11 06:19:49;;;;;;;;;2.00;0.00;;;;;9.20;70.55;101454.50;6281198;22;45084;-72
2023/04/11 06:22:14;;;;;;;;;4.00;2.00;;;;;9.34;69.68;101474.44;6280568;22;44720;-74
2023/04/11 06:24:40;;;;;;;;;4.75;1.00;;;;;9.40;69.97;101473.78;6280797;22;45165;-73
2023/04/11 06:27:08;;;;;;;;;2.00;2.00;;;;;9.35;70.61;101460.41;6280716;22;45439;-73
2023/04/11 06:29:34;;;;;;;;;3.00;1.50;;;;;9.43;70.24;101471.25;6279880;22;45338;-73
2023/04/11 06:32:00;;;;;;;;;3.50;1.00;;;;;9.34;69.32;101449.78;6278230;22;45266;-73
2023/04/11 06:34:25;;;;;;;;;2.00;2.00;;;;;9.44;68.94;101458.94;6280246;22;45275;-72
2023/04/11 06:36:50;;;;;;;;;1.75;1.75;;;;;9.49;69.22;101476.75;6252094;22;47351;-74
2023/04/11 06:39:16;;;;;;;;;2.50;1.00;;;;;9.64;70.18;101489.69;6252663;22;45272;-74
2023/04/11 06:41:41;;;;;;;;;7.25;3.00;;;;;9.66;69.10;101482.69;6280562;22;45188;-74
2023/04/11 06:44:07;;;;;;;;;2.75;1.75;;;;;9.67;68.73;101473.97;6280535;22;45308;-73
2023/04/11 06:46:32;;;;;;;;;4.00;2.00;;;;;9.56;68.97;101457.72;6252733;22;46763;-73
2023/04/11 06:48:58;;;;;;;;;5.50;1.00;;;;;9.83;69.07;101491.28;6279849;22;45296;-73
2023/04/11 06:51:23;;;;;;;;;5.00;1.00;;;;;9.94;69.31;101507.53;6280009;22;45617;-73
2023/04/11 06:53:49;;;;;;;;;4.75;3.00;;;;;9.87;68.68;101487.94;6279872;22;45387;-73
2023/04/11 06:56:15;;;;;;;;;2.00;2.00;;;;;10.00;69.16;101511.34;6280419;22;46497;-74
2023/04/11 06:58:40;;;;;;;;;2.00;2.00;;;;;9.92;68.36;101494.28;6280023;22;45233;-73
2023/04/11 07:01:06;;;;;;;;;3.00;1.50;;;;;9.86;67.97;101487.03;6252896;22;45189;-73
2023/04/11 07:03:31;;;;;;;;;6.50;3.00;;;;;9.96;69.10;101498.84;6279967;22;44981;-73
2023/04/11 07:05:57;;;;;;;;;4.00;2.25;;;;;10.01;68.24;101501.66;6280163;22;45447;-73
2023/04/11 07:08:22;;;;;;;;;3.00;1.50;;;;;10.02;68.35;101500.81;6279960;22;45178;-73
2023/04/11 07:10:47;;;;;;;;;5.50;2.00;;;;;10.14;69.27;101514.50;6252845;22;45210;-72
2023/04/11 07:13:13;;;;;;;;;2.00;2.00;;;;;10.18;68.19;101504.94;6280068;22;45469;-72
2023/04/11 07:15:38;;;;;;;;;6.00;2.00;;;;;10.22;67.61;101491.91;6280304;22;45474;-72
2023/04/11 07:18:04;;;;;;;;;3.00;2.00;;;;;10.23;68.31;101480.47;6280125;22;45178;-72
2023/04/11 07:20:31;;;;;;;;;1.00;1.00;;;;;10.38;68.23;101490.72;6252558;22;45253;-73
2023/04/11 07:22:57;;;;;;;;;1.75;1.00;;;;;10.53;67.67;101516.84;6277820;22;45289;-74
2023/04/11 07:25:29;;;;;;;;;3.50;0.00;;;;;10.60;66.89;101510.00;6278326;22;45340;-73
2023/04/11 07:27:54;;;;;;;;;4.25;2.00;;;;;10.61;67.66;101502.13;6279045;22;45230;-77
2023/04/11 07:30:20;;;;;;;;;3.25;1.00;;;;;10.50;66.84;101466.47;6251638;22;45198;-77
2023/04/11 07:32:45;;;;;;;;;1.75;1.75;;;;;10.76;67.03;101507.06;6251441;22;45831;-77
2023/04/11 07:35:11;;;;;;;;;6.00;2.25;;;;;10.73;67.49;101491.09;6279856;22;46321;-76
2023/04/11 07:37:37;;;;;;;;;1.50;1.50;;;;;10.79;66.87;101499.25;6250567;22;45261;-76
2023/04/11 07:40:05;;;;;;;;;4.00;0.00;;;;;10.86;66.70;101513.56;6278035;22;45305;-76
2023/04/11 10:22:08;;;;;;;;;5.00;1.00;;;;;14.53;55.46;101508.56;6171276;22;47328;31
2023/04/11 10:24:33;;;;;;;;;4.00;2.00;;;;;14.39;54.35;101430.22;6181899;23;45265;-71
2023/04/11 10:27:03;;;;;;;;;4.00;1.00;;;;;14.86;54.21;101468.38;6184837;23;45380;-71
2023/04/11 10:29:28;;;;;;;;;3.33;2.00;;;;;15.15;54.49;101498.16;6184726;23;45416;-71
2023/04/11 10:32:12;;;;;;;;;3.33;2.00;;;;;15.28;53.41;101498.34;6157438;23;47168;-72
2023/04/11 10:34:40;;;;;;;;;1.67;1.67;;;;;15.32;51.92;101492.19;6185162;23;45241;-72
2023/04/11 10:37:07;;;;;;;;;2.00;2.00;;;;;15.31;53.44;101463.78;6183721;23;45261;-71
2023/04/11 10:40:01;;;;;;;;;3.00;1.00;;;;;15.55;53.10;101495.25;6184676;23;45392;-71
2023/04/11 10:42:31;;;;;;;;;1.33;1.33;;;;;15.66;52.93;101477.63;6184199;23;45424;-72
2023/04/11 10:45:23;;;;;;;;;2.00;2.00;;;;;15.83;52.46;101457.47;6157505;23;46264;-72
2023/04/11 10:47:57;;;;;;;;;1.00;1.00;;;;;16.03;51.51;101468.38;6157615;23;45202;-72
2023/04/11 10:50:25;;;;;;;;;5.00;1.00;;;;;16.09;50.08;101478.25;6184462;23;45372;-73
2023/04/11 10:52:52;;;;;;;;;3.67;1.00;;;;;16.07;48.62;101462.19;6183756;23;45496;-73
2023/04/11 10:55:18;;;;;;;;;5.00;2.00;;;;;16.31;50.47;101471.41;6157363;23;45324;-73
2023/04/11 10:58:02;;;;;;;;;2.67;1.00;;;;;16.36;49.88;101480.34;6185550;23;45120;-72
2023/04/11 11:00:28;;;;;;;;;6.00;1.67;;;;;16.31;50.88;101455.38;6186277;23;45291;-72
2023/04/11 11:02:54;;;;;;;;;3.00;1.33;;;;;16.38;51.08;101454.56;6185502;23;45986;-72
2023/04/11 11:05:21;;;;;;;;;1.67;1.00;;;;;16.34;50.97;101442.97;6185740;23;45196;-72
2023/04/11 11:07:48;;;;;;;;;1.00;1.00;;;;;16.28;50.25;101447.34;6158937;23;45250;-72
2023/04/11 11:10:14;;;;;;;;;5.00;2.00;;;;;16.26;50.33;101441.09;6185937;23;45452;-73
2023/04/11 11:12:52;;;;;;;;;1.00;1.00;;;;;16.28;50.69;101439.34;6158810;23;47204;-73
2023/04/11 11:15:17;;;;;;;;;2.00;2.00;;;;;16.18;48.49;101410.75;6185853;23;45280;-73
2023/04/11 11:17:43;;;;;;;;;2.33;1.33;;;;;16.25;48.78;101413.53;6158841;23;45237;-73
2023/04/11 11:20:18;;;;;;;;;4.00;1.00;;;;;16.27;50.16;101406.44;6186130;23;45417;-73
2023/04/11 11:22:56;;;;;;;;;1.00;0.00;;;;;16.37;49.76;101407.41;6184545;23;46278;-73
2023/04/11 11:25:24;;;;;;;;;3.00;1.00;;;;;16.37;49.20;101388.75;6185870;23;45103;-74
2023/04/11 11:27:57;;;;;;;;;1.00;1.00;;;;;16.47;48.16;101403.97;6185950;23;45293;-78
2023/04/11 11:30:23;;;;;;;;;1.00;1.00;;;;;16.56;48.14;101401.38;6185782;23;45242;-77
2023/04/11 11:32:48;;;;;;;;;0.00;0.00;;;;;16.63;47.91;101388.09;6185758;23;45165;-77
2023/04/11 11:35:13;;;;;;;;;3.67;1.67;;;;;16.74;46.29;101411.31;6186303;23;53101;-76
2023/04/11 11:37:39;;;;;;;;;2.00;1.00;;;;;16.76;47.50;101404.25;6158410;23;45313;-77
2023/04/11 11:40:08;;;;;;;;;4.00;1.67;;;;;16.73;45.88;101396.19;6186257;23;45218;-76
2023/04/11 11:42:35;;;;;;;;;2.00;2.00;;;;;16.68;46.20;101371.22;6185386;23;45450;-76
2023/04/11 11:45:18;;;;;;;;;2.00;2.00;;;;;16.90;45.86;101387.47;6159068;23;45187;-76
2023/04/11 11:47:45;;;;;;;;;3.67;2.00;;;;;16.97;47.97;101395.56;6159113;23;45253;-75
2023/04/11 11:50:11;;;;;;;;;1.67;1.00;;;;;16.82;46.38;101389.19;6185879;23;45396;-76
2023/04/11 11:52:41;;;;;;;;;2.00;2.00;;;;;16.85;46.74;101397.22;6185147;23;45333;-76
2023/04/11 11:55:27;;;;;;;;;4.00;2.00;;;;;16.75;45.88;101382.88;6159466;23;45578;-76
2023/04/11 11:57:53;;;;;;;;;3.33;2.00;;;;;16.85;47.55;101389.19;6185130;23;45408;-76
2023/04/11 12:00:26;;;;;;;;;1.00;0.00;;;;;16.86;46.47;101388.31;6185854;23;45309;-76
2023/04/11 12:02:53;;;;;;;;;4.00;3.00;;;;;16.73;46.80;101364.16;6185381;23;46372;-78
2023/04/11 12:05:19;;;;;;;;;2.67;2.00;;;;;16.88;45.68;101386.56;6186241;23;45219;-77
2023/04/11 12:07:45;;;;;;;;;3.00;2.00;;;;;17.03;43.81;101380.44;6185748;23;45325;-78
2023/04/11 12:10:15;;;;;;;;;6.00;6.00;;;;;17.31;45.22;101397.53;6158204;23;45514;-77
2023/04/11 12:12:42;;;;;;;;;7.33;6.67;;;;;17.33;44.87;101390.44;6185393;23;45243;-76
2023/04/11 12:15:12;;;;;;;;;8.33;5.67;;;;;17.33;45.86;101391.31;6186393;23;45285;-77
2023/04/11 12:17:38;;;;;;;;;6.00;1.33;;;;;17.39;45.01;101393.13;6158997;23;45311;-78
2023/04/11 12:20:06;;;;;;;;;4.67;1.00;;;;;17.31;43.99;101387.75;6186472;23;45497;-80
2023/04/11 12:22:31;;;;;;;;;4.67;2.00;;;;;17.28;45.14;101381.47;6184981;23;45214;-78
2023/04/11 12:25:14;;;;;;;;;1.00;1.00;;;;;17.35;43.43;101392.22;6158700;23;45226;-78
2023/04/11 12:27:41;;;;;;;;;3.00;2.00;;;;;17.27;43.44;101390.41;6185832;23;45245;-78
2023/04/11 12:30:08;;;;;;;;;9.67;9.67;;;;;17.22;44.94;101385.94;6185900;23;45198;-79
2023/04/11 12:32:34;;;;;;;;;2.67;2.00;;;;;17.23;44.67;101390.38;6185720;23;45346;-78
2023/04/11 12:35:01;;;;;;;;;3.33;2.00;;;;;17.22;44.35;101393.03;6186198;23;45163;-78
2023/04/11 12:37:26;;;;;;;;;2.33;2.00;;;;;17.15;42.95;101378.75;6185911;23;45272;-79
2023/04/11 12:39:51;;;;;;;;;2.67;2.67;;;;;17.12;42.68;101384.06;6186393;23;45451;-81
2023/04/11 12:42:17;;;;;;;;;2.67;1.67;;;;;17.15;43.14;101394.78;6185938;23;45240;-80
2023/04/11 12:44:43;;;;;;;;;1.33;0.67;;;;;17.13;43.61;101385.84;6185745;23;45242;-78
2023/04/11 12:47:08;;;;;;;;;1.00;1.00;;;;;17.14;43.34;101384.06;6186121;23;45231;-77
2023/04/11 12:49:34;;;;;;;;;3.67;1.00;;;;;16.91;43.07;101366.09;6158443;23;45741;-77
2023/04/11 12:51:59;;;;;;;;;1.00;1.00;;;;;17.02;42.99;101389.34;6158456;23;48223;-78
2023/04/11 12:54:24;;;;;;;;;3.00;1.00;;;;;16.88;43.67;101366.06;6186235;23;45258;-76
2023/04/11 12:56:50;;;;;;;;;2.33;1.33;;;;;16.87;43.19;101377.66;6186111;23;45296;-78
2023/04/11 12:59:16;;;;;;;;;2.00;1.67;;;;;16.91;43.27;101365.22;6185978;23;45205;-78
2023/04/11 13:01:42;;;;;;;;;2.33;2.33;;;;;16.87;42.96;101353.63;6185540;23;45335;-76
2023/04/11 13:04:08;;;;;;;;;2.00;2.00;;;;;16.93;42.67;101361.66;6186186;23;45171;-78
2023/04/11 13:06:33;;;;;;;;;4.67;1.00;;;;;16.92;41.66;101354.56;6183849;23;45286;-78
2023/04/11 13:09:00;;;;;;;;;5.67;4.33;;;;;17.06;41.41;101353.75;6185615;23;45140;-77
2023/04/11 13:11:25;;;;;;;;;2.00;1.33;;;;;17.09;42.10;101351.09;6185785;23;45632;-77
2023/04/11 13:13:51;;;;;;;;;1.67;1.67;;;;;17.06;40.77;101313.69;6158287;23;45171;-78
2023/04/11 13:16:17;;;;;;;;;2.33;1.00;;;;;17.19;41.32;101320.88;6158962;23;45185;-78
2023/04/11 13:18:42;;;;;;;;;3.00;1.67;;;;;17.26;42.89;101314.69;6157911;23;46215;-76
2023/04/11 13:21:07;;;;;;;;;2.00;0.33;;;;;17.36;42.36;101324.53;6185521;23;57039;-76
2023/04/11 13:23:34;;;;;;;;;3.00;1.00;;;;;17.47;42.40;101326.38;6185277;23;45441;-76
2023/04/11 13:25:59;;;;;;;;;2.00;2.00;;;;;17.34;41.53;101296.03;6186678;23;45249;-78
2023/04/11 13:28:26;;;;;;;;;2.33;1.00;;;;;17.50;42.12;101311.22;6187818;23;45133;-78
2023/04/11 13:30:51;;;;;;;;;4.00;4.00;;;;;17.29;41.30;101277.28;6188211;23;45343;-77
2023/04/11 13:33:17;;;;;;;;;3.67;3.00;;;;;17.29;41.14;101279.97;6187780;23;45238;-79
2023/04/11 13:35:42;;;;;;;;;1.67;1.67;;;;;17.32;42.04;101288.00;6160077;23;45302;-78
2023/04/11 13:38:09;;;;;;;;;3.00;2.00;;;;;17.28;41.79;101287.97;6186113;23;45452;-79
2023/04/11 13:40:37;;;;;;;;;3.00;0.67;;;;;17.23;42.40;101275.50;6186643;23;45154;-78
2023/04/11 13:43:02;;;;;;;;;1.33;1.00;;;;;17.26;41.82;101296.00;6185734;23;45246;-78
2023/04/11 13:45:28;;;;;;;;;2.00;0.00;;;;;17.21;42.58;101282.59;6158663;23;45269;-77
2023/04/11 13:47:53;;;;;;;;;2.67;2.67;;;;;17.20;42.41;101282.59;6158570;23;45841;-78
2023/04/11 13:50:18;;;;;;;;;2.00;2.00;;;;;17.07;41.51;101276.28;6185624;23;48963;-76
2023/04/11 13:52:44;;;;;;;;;2.00;1.00;;;;;17.10;42.69;101267.41;6185370;23;45273;-77
2023/04/11 13:55:09;;;;;;;;;2.33;2.00;;;;;16.83;42.10;101218.28;6185981;23;45156;-77
2023/04/11 13:57:34;;;;;;;;;4.33;1.00;;;;;17.18;41.72;101260.31;6185294;23;45282;-77
2023/04/11 14:00:00;;;;;;;;;0.67;0.67;;;;;17.25;41.75;101258.56;6186168;23;45399;-77
2023/04/11 14:02:25;;;;;;;;;3.00;2.00;;;;;17.17;42.57;101253.22;6158538;23;45229;-77
2023/04/11 14:04:52;;;;;;;;;3.00;1.33;;;;;17.20;41.65;101256.78;6186108;23;45290;-76
2023/04/11 14:07:17;;;;;;;;;1.00;1.00;;;;;17.18;42.42;101239.84;6184902;23;45258;-76